createdAt,value
2023-05-06T00:03:17.324Z,11.09
2023-05-06T00:08:19.167Z,11.13
2023-05-06T00:13:23.126Z,11.17
2023-05-06T00:18:24.900Z,11.13
2023-05-06T00:23:26.706Z,11.13
2023-05-06T00:28:33.221Z,11.11
2023-05-06T00:33:37.213Z,11.08
2023-05-06T00:38:43.750Z,11.07
2023-05-06T00:43:45.650Z,11.04
2023-05-06T00:48:49.866Z,11.04
2023-05-06T00:53:51.696Z,11.03
2023-05-06T00:58:54.441Z,11.03
2023-05-06T01:03:58.661Z,11.05
2023-05-06T01:09:20.976Z,11.07
2023-05-06T01:14:39.216Z,11.05
2023-05-06T01:19:53.525Z,11.07
2023-05-06T01:24:55.359Z,11.03
2023-05-06T01:29:58.184Z,11.01
2023-05-06T01:35:15.926Z,10.98
2023-05-06T01:40:18.056Z,10.99
2023-05-06T01:45:23.281Z,10.98
2023-05-06T01:50:25.992Z,11.01
2023-05-06T01:55:32.208Z,10.99
2023-05-06T02:00:38.203Z,10.96
2023-05-06T02:05:42.671Z,10.91
2023-05-06T02:10:48.054Z,10.85
2023-05-06T02:15:56.900Z,10.79
2023-05-06T02:21:03.835Z,10.68
2023-05-06T02:26:08.492Z,10.51
2023-05-06T02:31:14.464Z,10.46
2023-05-06T02:36:18.326Z,10.42
2023-05-06T02:41:22.363Z,10.46
2023-05-06T02:46:26.587Z,10.50
2023-05-06T02:51:32.862Z,10.51
2023-05-06T02:56:40.187Z,10.55
2023-05-06T03:01:45.339Z,10.56
2023-05-06T03:06:47.034Z,10.59
2023-05-06T03:11:49.202Z,10.60
2023-05-06T03:16:51.863Z,10.58
2023-05-06T03:21:58.718Z,10.56
2023-05-06T03:27:01.735Z,10.59
2023-05-06T03:32:04.335Z,10.59
2023-05-06T03:37:10.451Z,10.60
2023-05-06T03:42:17.325Z,10.60
2023-05-06T03:47:20.726Z,10.61
2023-05-06T03:52:22.907Z,10.58
2023-05-06T03:57:29.775Z,10.56
2023-05-06T04:02:36.895Z,10.64
2023-05-06T04:07:41.365Z,10.58
2023-05-06T04:12:43.280Z,10.55
2023-05-06T04:17:47.667Z,10.51
2023-05-06T04:22:52.204Z,10.54
2023-05-06T04:27:55.799Z,10.60
2023-05-06T04:33:04.134Z,10.71
2023-05-06T04:38:09.266Z,10.87
2023-05-06T04:43:13.326Z,11.01
2023-05-06T04:48:19.275Z,11.05
2023-05-06T04:53:21.520Z,11.04
2023-05-06T04:58:25.762Z,10.95
2023-05-06T05:03:28.247Z,10.89
2023-05-06T05:08:36.607Z,10.89
2023-05-06T05:13:44.520Z,11.00
2023-05-06T05:18:46.342Z,11.12
2023-05-06T05:23:55.311Z,11.19
2023-05-06T05:28:57.282Z,11.37
2023-05-06T05:34:01.969Z,11.81
2023-05-06T05:39:06.466Z,12.21
2023-05-06T05:44:16.337Z,12.27
2023-05-06T05:49:20.682Z,11.99
2023-05-06T05:54:25.948Z,11.77
2023-05-06T05:59:31.698Z,11.58
2023-05-06T06:04:39.319Z,11.52
2023-05-06T06:09:41.807Z,11.48
2023-05-06T06:14:47.993Z,11.54
2023-05-06T06:19:57.298Z,11.95
2023-05-06T06:24:59.340Z,12.44
2023-05-06T06:30:01.126Z,12.80
2023-05-06T06:35:03.558Z,13.04
2023-05-06T06:40:08.351Z,12.99
2023-05-06T06:45:11.021Z,12.97
2023-05-06T06:50:13.021Z,12.78
2023-05-06T06:55:16.925Z,12.69
2023-05-06T07:00:18.812Z,12.88
2023-05-06T07:05:23.048Z,12.80
2023-05-06T07:10:24.924Z,12.89
2023-05-06T07:15:31.672Z,13.11
2023-05-06T07:20:33.400Z,13.39
2023-05-06T07:25:37.574Z,13.71
2023-05-06T07:30:41.851Z,13.77
2023-05-06T07:35:48.600Z,13.72
2023-05-06T07:40:51.543Z,13.60
2023-05-06T07:45:58.904Z,13.41
2023-05-06T07:51:00.962Z,13.58
2023-05-06T07:56:03.924Z,13.78
2023-05-06T08:01:06.225Z,13.72
2023-05-06T08:06:08.523Z,13.52
2023-05-06T08:11:12.574Z,13.53
2023-05-06T08:16:14.406Z,13.63
2023-05-06T08:21:17.989Z,13.96
2023-05-06T08:26:22.186Z,13.89
2023-05-06T08:31:28.951Z,13.98
2023-05-06T08:36:35.271Z,14.29
2023-05-06T08:41:40.463Z,14.59
2023-05-06T08:46:46.343Z,14.69
2023-05-06T08:51:50.719Z,15.02
2023-05-06T08:56:53.383Z,15.41
2023-05-06T09:01:55.241Z,16.11
2023-05-06T09:07:02.919Z,16.38
2023-05-06T09:12:12.281Z,16.40
2023-05-06T09:17:24.106Z,16.51
2023-05-06T09:22:30.987Z,16.54
2023-05-06T09:27:42.186Z,16.62
2023-05-06T09:32:44.168Z,16.62
2023-05-06T09:37:45.956Z,16.67
2023-05-06T09:42:47.845Z,16.73
2023-05-06T09:47:53.813Z,17.30
2023-05-06T09:52:56.519Z,17.99
2023-05-06T09:58:00.505Z,18.18
2023-05-06T10:03:05.880Z,17.85
2023-05-06T10:08:08.633Z,18.03
2023-05-06T10:13:10.644Z,18.13
2023-05-06T10:18:13.608Z,18.31
2023-05-06T10:23:32.534Z,18.07
2023-05-06T10:28:39.969Z,17.67
2023-05-06T10:33:45.322Z,17.40
2023-05-06T10:38:54.760Z,16.91
2023-05-06T10:43:57.350Z,16.87
2023-05-06T10:49:13.913Z,17.23
2023-05-06T10:54:21.424Z,17.66
2023-05-06T10:59:28.580Z,17.59
2023-05-06T11:04:31.405Z,17.97
2023-05-06T11:09:33.181Z,18.15
2023-05-06T11:14:38.802Z,18.66
2023-05-06T11:19:40.590Z,19.17
2023-05-06T11:24:44.646Z,19.36
2023-05-06T11:29:46.475Z,19.74
2023-05-06T11:34:48.217Z,19.75
2023-05-06T11:39:52.213Z,19.47
2023-05-06T11:44:56.716Z,19.57
2023-05-06T11:49:59.131Z,20.36
2023-05-06T11:55:00.920Z,21.04
2023-05-06T12:00:04.894Z,21.87
2023-05-06T12:05:13.797Z,22.58
2023-05-06T12:10:17.230Z,23.03
2023-05-06T12:15:19.360Z,23.39
2023-05-06T12:20:21.510Z,24.08
2023-05-06T12:25:23.358Z,24.79
2023-05-06T12:30:32.270Z,24.66
2023-05-06T12:35:34.098Z,25.61
2023-05-06T12:40:38.427Z,26.02
2023-05-06T12:45:42.542Z,26.99
2023-05-06T12:50:45.252Z,27.69
2023-05-06T12:55:46.933Z,28.31
2023-05-06T13:00:48.985Z,29.53
2023-05-06T13:05:53.047Z,30.30
2023-05-06T13:10:54.784Z,30.45
2023-05-06T13:15:58.834Z,30.47
2023-05-06T13:21:00.837Z,30.01
2023-05-06T13:26:06.079Z,30.47
2023-05-06T13:31:13.282Z,30.78
2023-05-06T13:36:17.698Z,30.57
2023-05-06T13:41:19.777Z,30.55
2023-05-06T13:46:23.843Z,31.52
2023-05-06T13:51:30.579Z,32.19
2023-05-06T13:56:32.543Z,33.46
2023-05-06T14:01:34.355Z,34.21
2023-05-06T14:06:36.191Z,34.37
2023-05-06T14:11:42.595Z,34.78
2023-05-06T14:16:46.871Z,35.27
2023-05-06T14:21:48.657Z,35.44
2023-05-06T14:26:50.471Z,34.60
2023-05-06T14:31:54.318Z,35.07
2023-05-06T14:36:56.092Z,34.69
2023-05-06T14:41:58.135Z,34.88
2023-05-06T14:47:02.439Z,34.40
2023-05-06T14:52:04.250Z,34.80
2023-05-06T14:57:06.225Z,34.66
2023-05-06T15:02:11.216Z,33.44
2023-05-06T15:07:13.211Z,34.71
2023-05-06T15:12:17.497Z,35.00
2023-05-06T15:17:19.249Z,35.05
2023-05-06T15:22:23.516Z,35.00
2023-05-06T15:27:27.614Z,34.82
2023-05-06T15:32:29.364Z,34.90
2023-05-06T15:37:35.996Z,34.61
2023-05-06T15:42:38.377Z,33.55
2023-05-06T15:47:40.103Z,33.26
2023-05-06T15:52:45.078Z,32.52
2023-05-06T15:57:46.798Z,32.53
2023-05-06T16:02:50.760Z,32.95
2023-05-06T16:07:55.828Z,31.31
2023-05-06T16:12:57.627Z,31.67
2023-05-06T16:17:59.442Z,28.73
2023-05-06T16:23:03.568Z,26.70
2023-05-06T16:28:08.986Z,25.63
2023-05-06T16:33:12.035Z,24.90
2023-05-06T16:38:13.756Z,24.14
2023-05-06T16:43:15.537Z,23.50
2023-05-06T16:48:17.499Z,23.07
2023-05-06T16:53:19.424Z,22.49
2023-05-06T16:58:21.343Z,22.04
2023-05-06T17:03:23.132Z,21.74
2023-05-06T17:08:26.858Z,21.43
2023-05-06T17:13:31.099Z,21.24
2023-05-06T17:18:33.002Z,20.93
2023-05-06T17:23:37.029Z,20.38
2023-05-06T17:28:38.864Z,19.78
2023-05-06T17:33:40.808Z,19.43
2023-05-06T17:38:43.264Z,19.13
2023-05-06T17:43:47.467Z,18.76
2023-05-06T17:48:49.332Z,18.39
2023-05-06T17:53:51.625Z,18.24
2023-05-06T17:58:56.586Z,17.95
2023-05-06T18:03:58.792Z,17.79
2023-05-06T18:09:03.185Z,17.59
2023-05-06T18:14:05.626Z,17.40
2023-05-06T18:19:07.413Z,17.04
2023-05-06T18:24:15.824Z,16.80
2023-05-06T18:29:22.918Z,16.58
2023-05-06T18:34:26.717Z,16.50
2023-05-06T18:39:28.466Z,16.28
2023-05-06T18:44:32.482Z,16.03
2023-05-06T18:49:36.822Z,15.90
2023-05-06T18:54:39.600Z,15.60
2023-05-06T18:59:41.698Z,15.38
2023-05-06T19:04:43.810Z,15.25
2023-05-06T19:09:45.913Z,15.14
2023-05-06T19:14:50.046Z,14.94
2023-05-06T19:19:51.880Z,14.82
2023-05-06T19:24:55.878Z,14.70
2023-05-06T19:29:59.781Z,14.48
2023-05-06T19:35:08.120Z,14.38
2023-05-06T19:40:13.041Z,14.35
2023-05-06T19:45:18.940Z,14.20
2023-05-06T19:50:23.522Z,14.07
2023-05-06T19:55:27.621Z,13.93
2023-05-06T20:00:30.366Z,13.84
2023-05-06T20:05:32.332Z,13.68
2023-05-06T20:10:37.118Z,13.44
2023-05-06T20:15:38.995Z,13.38
2023-05-06T20:20:40.976Z,13.35
2023-05-06T20:25:42.790Z,13.25
2023-05-06T20:30:44.646Z,13.01
2023-05-06T20:35:48.075Z,12.87
2023-05-06T20:40:50.013Z,12.81
2023-05-06T20:45:51.781Z,12.80
2023-05-06T20:50:54.217Z,12.81
2023-05-06T20:55:55.984Z,12.76
2023-05-06T21:00:57.756Z,12.66
2023-05-06T21:05:59.492Z,12.63
2023-05-06T21:11:01.484Z,12.57
2023-05-06T21:16:03.596Z,12.51
2023-05-06T21:21:05.335Z,12.42
2023-05-06T21:26:07.368Z,12.36
2023-05-06T21:31:09.145Z,12.31
2023-05-06T21:36:10.986Z,12.30
2023-05-06T21:41:14.950Z,12.30
2023-05-06T21:46:16.707Z,12.24
2023-05-06T21:51:18.454Z,12.21
2023-05-06T21:56:20.268Z,12.14
2023-05-06T22:01:22.902Z,12.05
2023-05-06T22:06:24.693Z,11.99
2023-05-06T22:11:26.386Z,11.98
2023-05-06T22:16:31.415Z,12.02
2023-05-06T22:21:33.933Z,11.94
2023-05-06T22:26:35.758Z,11.89
2023-05-06T22:31:37.588Z,11.83
2023-05-06T22:36:41.480Z,11.75
2023-05-06T22:41:45.627Z,11.73
2023-05-06T22:46:51.920Z,11.72
2023-05-06T22:51:53.749Z,11.77
2023-05-06T22:56:55.557Z,11.66
2023-05-06T23:01:57.355Z,11.57
2023-05-06T23:07:01.396Z,11.52
2023-05-06T23:12:06.204Z,11.47
2023-05-06T23:17:10.024Z,11.48
2023-05-06T23:22:11.816Z,11.47
2023-05-06T23:27:13.518Z,11.48
2023-05-06T23:32:15.245Z,11.48
2023-05-06T23:37:17.583Z,11.46
2023-05-06T23:42:22.779Z,11.45
2023-05-06T23:47:24.599Z,11.41
2023-05-06T23:52:26.811Z,11.39
2023-05-06T23:57:34.574Z,11.33
